sensor_id;sensor_type;location;lat;lon;timestamp;temperature;humidity
28763;DHT22;15918;51.270;6.522;2023-06-26T00:02:01;27.50;51.50
28763;DHT22;15918;51.270;6.522;2023-06-26T00:04:27;27.50;51.50
28763;DHT22;15918;51.270;6.522;2023-06-26T00:06:52;27.50;51.50
28763;DHT22;15918;51.270;6.522;2023-06-26T00:09:18;27.50;51.60
28763;DHT22;15918;51.270;6.522;2023-06-26T00:11:43;27.50;51.60
28763;DHT22;15918;51.270;6.522;2023-06-26T00:14:09;27.50;51.60
28763;DHT22;15918;51.270;6.522;2023-06-26T00:16:35;27.50;51.60
28763;DHT22;15918;51.270;6.522;2023-06-26T00:19:01;27.50;51.60
28763;DHT22;15918;51.270;6.522;2023-06-26T00:21:27;27.50;51.60
28763;DHT22;15918;51.270;6.522;2023-06-26T00:23:53;27.50;51.60
28763;DHT22;15918;51.270;6.522;2023-06-26T00:26:18;27.40;51.70
28763;DHT22;15918;51.270;6.522;2023-06-26T00:28:44;27.40;51.70
28763;DHT22;15918;51.270;6.522;2023-06-26T00:31:10;27.40;51.80
28763;DHT22;15918;51.270;6.522;2023-06-26T00:33:35;27.40;51.90
28763;DHT22;15918;51.270;6.522;2023-06-26T00:36:01;27.40;51.90
28763;DHT22;15918;51.270;6.522;2023-06-26T00:38:26;27.30;51.90
28763;DHT22;15918;51.270;6.522;2023-06-26T00:40:52;27.40;52.00
28763;DHT22;15918;51.270;6.522;2023-06-26T00:43:17;27.30;51.90
28763;DHT22;15918;51.270;6.522;2023-06-26T00:45:43;27.30;52.00
28763;DHT22;15918;51.270;6.522;2023-06-26T00:48:10;27.30;52.00
28763;DHT22;15918;51.270;6.522;2023-06-26T00:50:37;27.30;52.10
28763;DHT22;15918;51.270;6.522;2023-06-26T00:53:05;27.30;52.10
28763;DHT22;15918;51.270;6.522;2023-06-26T00:55:31;27.30;52.10
28763;DHT22;15918;51.270;6.522;2023-06-26T00:57:56;27.20;52.10
28763;DHT22;15918;51.270;6.522;2023-06-26T01:00:22;27.20;52.10
28763;DHT22;15918;51.270;6.522;2023-06-26T01:02:48;27.20;52.10
28763;DHT22;15918;51.270;6.522;2023-06-26T01:05:15;27.20;52.10
28763;DHT22;15918;51.270;6.522;2023-06-26T01:07:49;27.20;52.20
28763;DHT22;15918;51.270;6.522;2023-06-26T01:10:15;27.20;52.20
28763;DHT22;15918;51.270;6.522;2023-06-26T01:12:40;27.20;52.20
28763;DHT22;15918;51.270;6.522;2023-06-26T01:15:07;27.10;52.20
28763;DHT22;15918;51.270;6.522;2023-06-26T01:17:33;27.10;52.30
28763;DHT22;15918;51.270;6.522;2023-06-26T01:20:00;27.10;52.30
28763;DHT22;15918;51.270;6.522;2023-06-26T01:22:47;27.10;52.30
28763;DHT22;15918;51.270;6.522;2023-06-26T01:25:23;27.10;52.20
28763;DHT22;15918;51.270;6.522;2023-06-26T01:27:55;27.10;52.40
28763;DHT22;15918;51.270;6.522;2023-06-26T01:30:21;27.10;52.50
28763;DHT22;15918;51.270;6.522;2023-06-26T01:32:48;27.10;52.50
28763;DHT22;15918;51.270;6.522;2023-06-26T01:35:15;27.10;52.60
28763;DHT22;15918;51.270;6.522;2023-06-26T01:37:41;27.00;52.50
28763;DHT22;15918;51.270;6.522;2023-06-26T01:40:07;27.00;52.60
28763;DHT22;15918;51.270;6.522;2023-06-26T01:42:34;27.00;52.60
28763;DHT22;15918;51.270;6.522;2023-06-26T01:45:07;27.00;52.60
28763;DHT22;15918;51.270;6.522;2023-06-26T01:47:37;27.00;52.60
28763;DHT22;15918;51.270;6.522;2023-06-26T01:50:25;27.00;52.60
28763;DHT22;15918;51.270;6.522;2023-06-26T01:53:02;27.00;52.60
28763;DHT22;15918;51.270;6.522;2023-06-26T01:56:00;27.00;52.60
28763;DHT22;15918;51.270;6.522;2023-06-26T01:58:29;26.90;52.60
28763;DHT22;15918;51.270;6.522;2023-06-26T02:00:56;26.90;52.70
28763;DHT22;15918;51.270;6.522;2023-06-26T02:03:22;26.90;52.70
28763;DHT22;15918;51.270;6.522;2023-06-26T02:05:50;26.90;52.60
28763;DHT22;15918;51.270;6.522;2023-06-26T02:08:16;26.90;52.60
28763;DHT22;15918;51.270;6.522;2023-06-26T02:10:41;26.80;52.50
28763;DHT22;15918;51.270;6.522;2023-06-26T02:13:07;26.90;52.60
28763;DHT22;15918;51.270;6.522;2023-06-26T02:15:33;26.80;52.50
28763;DHT22;15918;51.270;6.522;2023-06-26T02:17:58;26.80;52.50
28763;DHT22;15918;51.270;6.522;2023-06-26T02:20:24;26.80;52.40
28763;DHT22;15918;51.270;6.522;2023-06-26T02:22:49;26.80;52.40
28763;DHT22;15918;51.270;6.522;2023-06-26T02:25:15;26.80;52.30
28763;DHT22;15918;51.270;6.522;2023-06-26T02:27:42;26.80;52.40
28763;DHT22;15918;51.270;6.522;2023-06-26T02:30:08;26.70;52.30
28763;DHT22;15918;51.270;6.522;2023-06-26T02:32:34;26.70;52.30
28763;DHT22;15918;51.270;6.522;2023-06-26T02:35:00;26.70;52.40
28763;DHT22;15918;51.270;6.522;2023-06-26T02:37:25;26.70;52.40
28763;DHT22;15918;51.270;6.522;2023-06-26T02:39:51;26.60;52.30
28763;DHT22;15918;51.270;6.522;2023-06-26T02:42:17;26.70;52.40
28763;DHT22;15918;51.270;6.522;2023-06-26T02:44:42;26.60;52.30
28763;DHT22;15918;51.270;6.522;2023-06-26T02:47:08;26.60;52.30
28763;DHT22;15918;51.270;6.522;2023-06-26T02:49:33;26.60;52.30
28763;DHT22;15918;51.270;6.522;2023-06-26T02:51:59;26.60;52.20
28763;DHT22;15918;51.270;6.522;2023-06-26T02:54:24;26.60;52.10
28763;DHT22;15918;51.270;6.522;2023-06-26T02:56:50;26.50;52.00
28763;DHT22;15918;51.270;6.522;2023-06-26T02:59:16;26.50;52.00
28763;DHT22;15918;51.270;6.522;2023-06-26T03:01:41;26.50;52.10
28763;DHT22;15918;51.270;6.522;2023-06-26T03:04:07;26.40;52.00
28763;DHT22;15918;51.270;6.522;2023-06-26T03:06:33;26.50;52.10
28763;DHT22;15918;51.270;6.522;2023-06-26T03:08:59;26.50;52.10
28763;DHT22;15918;51.270;6.522;2023-06-26T03:11:24;26.40;52.00
28763;DHT22;15918;51.270;6.522;2023-06-26T03:13:50;26.40;52.10
28763;DHT22;15918;51.270;6.522;2023-06-26T03:16:15;26.40;52.10
28763;DHT22;15918;51.270;6.522;2023-06-26T03:18:41;26.40;52.20
28763;DHT22;15918;51.270;6.522;2023-06-26T03:21:08;26.40;52.20
28763;DHT22;15918;51.270;6.522;2023-06-26T03:23:34;26.40;52.30
28763;DHT22;15918;51.270;6.522;2023-06-26T03:26:00;26.40;52.30
28763;DHT22;15918;51.270;6.522;2023-06-26T03:28:25;26.30;52.30
28763;DHT22;15918;51.270;6.522;2023-06-26T03:30:51;26.30;52.40
28763;DHT22;15918;51.270;6.522;2023-06-26T03:33:16;26.30;52.50
28763;DHT22;15918;51.270;6.522;2023-06-26T03:35:42;26.20;52.40
28763;DHT22;15918;51.270;6.522;2023-06-26T03:38:08;26.20;52.40
28763;DHT22;15918;51.270;6.522;2023-06-26T03:40:33;26.20;52.50
28763;DHT22;15918;51.270;6.522;2023-06-26T03:42:59;26.20;52.60
28763;DHT22;15918;51.270;6.522;2023-06-26T03:45:24;26.20;52.60
28763;DHT22;15918;51.270;6.522;2023-06-26T03:47:50;26.20;52.60
28763;DHT22;15918;51.270;6.522;2023-06-26T03:50:16;26.20;52.60
28763;DHT22;15918;51.270;6.522;2023-06-26T03:52:42;26.20;52.60
28763;DHT22;15918;51.270;6.522;2023-06-26T03:55:08;26.10;52.60
28763;DHT22;15918;51.270;6.522;2023-06-26T03:57:34;26.10;52.60
28763;DHT22;15918;51.270;6.522;2023-06-26T04:00:00;26.10;52.50
28763;DHT22;15918;51.270;6.522;2023-06-26T04:02:25;26.10;52.50
28763;DHT22;15918;51.270;6.522;2023-06-26T04:04:51;26.10;52.50
28763;DHT22;15918;51.270;6.522;2023-06-26T04:07:18;26.10;52.50
28763;DHT22;15918;51.270;6.522;2023-06-26T04:09:44;26.00;52.40
28763;DHT22;15918;51.270;6.522;2023-06-26T04:12:10;26.00;52.40
28763;DHT22;15918;51.270;6.522;2023-06-26T04:14:35;26.00;52.20
28763;DHT22;15918;51.270;6.522;2023-06-26T04:17:01;26.00;52.20
28763;DHT22;15918;51.270;6.522;2023-06-26T04:19:29;26.00;52.10
28763;DHT22;15918;51.270;6.522;2023-06-26T04:21:54;26.00;52.00
28763;DHT22;15918;51.270;6.522;2023-06-26T04:24:20;26.00;51.90
28763;DHT22;15918;51.270;6.522;2023-06-26T04:26:45;26.00;51.90
28763;DHT22;15918;51.270;6.522;2023-06-26T04:29:11;25.90;51.90
28763;DHT22;15918;51.270;6.522;2023-06-26T04:31:37;26.00;51.90
28763;DHT22;15918;51.270;6.522;2023-06-26T04:34:04;26.00;51.90
28763;DHT22;15918;51.270;6.522;2023-06-26T04:36:29;26.00;51.90
28763;DHT22;15918;51.270;6.522;2023-06-26T04:38:56;26.00;51.90
28763;DHT22;15918;51.270;6.522;2023-06-26T04:41:22;25.90;51.80
28763;DHT22;15918;51.270;6.522;2023-06-26T04:43:48;25.90;51.90
28763;DHT22;15918;51.270;6.522;2023-06-26T04:46:13;25.90;51.90
28763;DHT22;15918;51.270;6.522;2023-06-26T04:48:39;25.90;51.90
28763;DHT22;15918;51.270;6.522;2023-06-26T04:51:04;25.90;51.90
28763;DHT22;15918;51.270;6.522;2023-06-26T04:53:30;25.90;52.00
28763;DHT22;15918;51.270;6.522;2023-06-26T04:55:56;25.90;52.10
28763;DHT22;15918;51.270;6.522;2023-06-26T04:58:21;25.90;52.00
28763;DHT22;15918;51.270;6.522;2023-06-26T05:00:47;25.90;52.00
28763;DHT22;15918;51.270;6.522;2023-06-26T05:03:13;25.90;51.90
28763;DHT22;15918;51.270;6.522;2023-06-26T05:05:39;25.80;51.90
28763;DHT22;15918;51.270;6.522;2023-06-26T05:08:21;25.90;52.00
28763;DHT22;15918;51.270;6.522;2023-06-26T05:10:47;25.80;51.90
28763;DHT22;15918;51.270;6.522;2023-06-26T05:13:13;25.80;52.00
28763;DHT22;15918;51.270;6.522;2023-06-26T05:15:43;25.80;52.20
28763;DHT22;15918;51.270;6.522;2023-06-26T05:18:08;25.90;52.10
28763;DHT22;15918;51.270;6.522;2023-06-26T05:20:35;25.80;52.10
28763;DHT22;15918;51.270;6.522;2023-06-26T05:23:02;25.80;52.10
28763;DHT22;15918;51.270;6.522;2023-06-26T05:25:29;25.80;52.00
28763;DHT22;15918;51.270;6.522;2023-06-26T05:27:58;25.80;52.00
28763;DHT22;15918;51.270;6.522;2023-06-26T05:30:25;25.80;52.00
28763;DHT22;15918;51.270;6.522;2023-06-26T05:32:51;25.70;52.00
28763;DHT22;15918;51.270;6.522;2023-06-26T05:35:18;25.70;52.00
28763;DHT22;15918;51.270;6.522;2023-06-26T05:37:45;25.80;52.10
28763;DHT22;15918;51.270;6.522;2023-06-26T05:40:12;25.70;52.10
28763;DHT22;15918;51.270;6.522;2023-06-26T05:42:38;25.80;52.20
28763;DHT22;15918;51.270;6.522;2023-06-26T05:45:05;25.70;52.20
28763;DHT22;15918;51.270;6.522;2023-06-26T05:47:31;25.80;52.30
28763;DHT22;15918;51.270;6.522;2023-06-26T05:49:57;25.70;52.20
28763;DHT22;15918;51.270;6.522;2023-06-26T05:52:23;25.70;52.10
28763;DHT22;15918;51.270;6.522;2023-06-26T05:54:49;25.70;52.20
28763;DHT22;15918;51.270;6.522;2023-06-26T05:57:15;25.70;52.20
28763;DHT22;15918;51.270;6.522;2023-06-26T05:59:43;25.70;52.30
28763;DHT22;15918;51.270;6.522;2023-06-26T06:02:09;25.70;52.40
28763;DHT22;15918;51.270;6.522;2023-06-26T06:04:34;25.70;52.50
28763;DHT22;15918;51.270;6.522;2023-06-26T06:07:02;25.70;52.50
28763;DHT22;15918;51.270;6.522;2023-06-26T06:09:28;25.70;52.60
28763;DHT22;15918;51.270;6.522;2023-06-26T06:11:54;25.70;52.60
28763;DHT22;15918;51.270;6.522;2023-06-26T06:14:20;25.70;52.70
28763;DHT22;15918;51.270;6.522;2023-06-26T06:16:46;25.70;52.60
28763;DHT22;15918;51.270;6.522;2023-06-26T06:19:12;25.70;52.70
28763;DHT22;15918;51.270;6.522;2023-06-26T06:21:39;25.80;52.80
28763;DHT22;15918;51.270;6.522;2023-06-26T06:24:05;25.80;52.90
28763;DHT22;15918;51.270;6.522;2023-06-26T06:26:33;25.80;52.90
28763;DHT22;15918;51.270;6.522;2023-06-26T06:28:59;25.90;52.80
28763;DHT22;15918;51.270;6.522;2023-06-26T06:31:24;25.90;52.90
28763;DHT22;15918;51.270;6.522;2023-06-26T06:33:50;26.00;53.00
28763;DHT22;15918;51.270;6.522;2023-06-26T06:36:16;26.00;53.00
28763;DHT22;15918;51.270;6.522;2023-06-26T06:38:45;26.10;53.00
28763;DHT22;15918;51.270;6.522;2023-06-26T06:41:11;26.10;52.80
28763;DHT22;15918;51.270;6.522;2023-06-26T06:43:38;26.10;52.80
28763;DHT22;15918;51.270;6.522;2023-06-26T06:46:04;26.10;52.90
28763;DHT22;15918;51.270;6.522;2023-06-26T06:48:30;26.10;52.70
28763;DHT22;15918;51.270;6.522;2023-06-26T06:50:56;26.10;52.80
28763;DHT22;15918;51.270;6.522;2023-06-26T06:53:21;26.10;52.80
28763;DHT22;15918;51.270;6.522;2023-06-26T06:55:48;26.10;52.80
28763;DHT22;15918;51.270;6.522;2023-06-26T06:58:14;26.10;52.70
28763;DHT22;15918;51.270;6.522;2023-06-26T07:00:42;26.10;52.60
28763;DHT22;15918;51.270;6.522;2023-06-26T07:03:07;26.20;52.70
28763;DHT22;15918;51.270;6.522;2023-06-26T07:05:33;26.20;52.70
28763;DHT22;15918;51.270;6.522;2023-06-26T07:07:58;26.20;52.80
28763;DHT22;15918;51.270;6.522;2023-06-26T07:10:24;26.20;53.40
28763;DHT22;15918;51.270;6.522;2023-06-26T07:12:50;26.30;52.80
28763;DHT22;15918;51.270;6.522;2023-06-26T07:15:17;26.30;52.80
28763;DHT22;15918;51.270;6.522;2023-06-26T07:17:42;26.30;52.80
28763;DHT22;15918;51.270;6.522;2023-06-26T07:20:09;26.30;52.90
28763;DHT22;15918;51.270;6.522;2023-06-26T07:22:40;26.40;53.00
28763;DHT22;15918;51.270;6.522;2023-06-26T07:25:06;26.50;52.90
28763;DHT22;15918;51.270;6.522;2023-06-26T07:27:37;26.40;52.90
28763;DHT22;15918;51.270;6.522;2023-06-26T07:30:03;26.50;52.90
28763;DHT22;15918;51.270;6.522;2023-06-26T07:32:29;26.50;52.70
28763;DHT22;15918;51.270;6.522;2023-06-26T07:34:55;26.60;52.70
28763;DHT22;15918;51.270;6.522;2023-06-26T07:37:21;26.60;52.40
28763;DHT22;15918;51.270;6.522;2023-06-26T07:39:47;26.70;52.50
28763;DHT22;15918;51.270;6.522;2023-06-26T07:42:13;26.70;52.40
28763;DHT22;15918;51.270;6.522;2023-06-26T07:44:39;26.80;52.40
28763;DHT22;15918;51.270;6.522;2023-06-26T07:47:04;26.80;52.40
28763;DHT22;15918;51.270;6.522;2023-06-26T07:49:30;26.80;52.40
28763;DHT22;15918;51.270;6.522;2023-06-26T07:51:56;26.80;52.40
28763;DHT22;15918;51.270;6.522;2023-06-26T07:54:21;26.80;52.30
28763;DHT22;15918;51.270;6.522;2023-06-26T07:57:01;26.80;52.30
28763;DHT22;15918;51.270;6.522;2023-06-26T07:59:28;26.80;52.10
28763;DHT22;15918;51.270;6.522;2023-06-26T08:01:55;26.80;52.10
28763;DHT22;15918;51.270;6.522;2023-06-26T08:04:22;26.90;52.10
28763;DHT22;15918;51.270;6.522;2023-06-26T08:06:49;27.00;52.10
28763;DHT22;15918;51.270;6.522;2023-06-26T08:09:16;26.90;52.00
28763;DHT22;15918;51.270;6.522;2023-06-26T08:11:42;26.90;51.80
28763;DHT22;15918;51.270;6.522;2023-06-26T08:14:08;26.90;51.70
28763;DHT22;15918;51.270;6.522;2023-06-26T08:16:33;26.90;51.60
28763;DHT22;15918;51.270;6.522;2023-06-26T08:18:59;26.90;51.50
28763;DHT22;15918;51.270;6.522;2023-06-26T08:21:25;26.90;51.50
28763;DHT22;15918;51.270;6.522;2023-06-26T08:23:51;26.90;51.40
28763;DHT22;15918;51.270;6.522;2023-06-26T08:26:16;26.90;51.30
28763;DHT22;15918;51.270;6.522;2023-06-26T08:28:42;26.90;51.10
28763;DHT22;15918;51.270;6.522;2023-06-26T08:31:08;26.90;51.20
28763;DHT22;15918;51.270;6.522;2023-06-26T08:33:33;26.90;51.20
28763;DHT22;15918;51.270;6.522;2023-06-26T08:35:59;27.00;51.20
28763;DHT22;15918;51.270;6.522;2023-06-26T08:38:25;26.90;51.10
28763;DHT22;15918;51.270;6.522;2023-06-26T08:40:51;26.80;51.10
28763;DHT22;15918;51.270;6.522;2023-06-26T08:43:17;26.80;51.20
28763;DHT22;15918;51.270;6.522;2023-06-26T08:45:43;26.90;51.30
28763;DHT22;15918;51.270;6.522;2023-06-26T08:48:08;26.90;51.40
28763;DHT22;15918;51.270;6.522;2023-06-26T08:50:35;26.90;51.30
28763;DHT22;15918;51.270;6.522;2023-06-26T08:53:09;26.90;51.30
28763;DHT22;15918;51.270;6.522;2023-06-26T08:55:41;26.90;51.40
28763;DHT22;15918;51.270;6.522;2023-06-26T08:58:07;26.90;51.30
28763;DHT22;15918;51.270;6.522;2023-06-26T09:00:33;27.00;51.30
28763;DHT22;15918;51.270;6.522;2023-06-26T09:02:59;26.90;51.20
28763;DHT22;15918;51.270;6.522;2023-06-26T09:05:26;26.90;51.20
28763;DHT22;15918;51.270;6.522;2023-06-26T09:07:53;26.90;51.10
28763;DHT22;15918;51.270;6.522;2023-06-26T09:10:21;27.00;51.20
28763;DHT22;15918;51.270;6.522;2023-06-26T09:12:47;27.00;51.10
28763;DHT22;15918;51.270;6.522;2023-06-26T09:15:18;27.00;51.00
28763;DHT22;15918;51.270;6.522;2023-06-26T09:17:44;27.10;51.10
28763;DHT22;15918;51.270;6.522;2023-06-26T09:20:10;27.10;51.10
28763;DHT22;15918;51.270;6.522;2023-06-26T09:22:38;27.10;51.00
28763;DHT22;15918;51.270;6.522;2023-06-26T09:25:05;27.10;51.10
28763;DHT22;15918;51.270;6.522;2023-06-26T09:27:31;27.20;51.10
28763;DHT22;15918;51.270;6.522;2023-06-26T09:29:57;27.20;50.90
28763;DHT22;15918;51.270;6.522;2023-06-26T09:32:26;27.20;50.90
28763;DHT22;15918;51.270;6.522;2023-06-26T09:34:53;27.20;50.70
28763;DHT22;15918;51.270;6.522;2023-06-26T09:37:21;27.20;50.80
28763;DHT22;15918;51.270;6.522;2023-06-26T09:39:48;27.20;50.60
28763;DHT22;15918;51.270;6.522;2023-06-26T09:42:14;27.30;50.60
28763;DHT22;15918;51.270;6.522;2023-06-26T09:44:44;27.30;50.50
28763;DHT22;15918;51.270;6.522;2023-06-26T09:47:10;27.30;50.50
28763;DHT22;15918;51.270;6.522;2023-06-26T09:49:36;27.40;50.40
28763;DHT22;15918;51.270;6.522;2023-06-26T09:52:02;27.40;50.30
28763;DHT22;15918;51.270;6.522;2023-06-26T09:54:28;27.40;50.80
28763;DHT22;15918;51.270;6.522;2023-06-26T09:56:56;27.40;50.10
28763;DHT22;15918;51.270;6.522;2023-06-26T09:59:33;27.40;50.00
28763;DHT22;15918;51.270;6.522;2023-06-26T10:01:59;27.50;50.00
28763;DHT22;15918;51.270;6.522;2023-06-26T10:04:25;27.60;49.80
28763;DHT22;15918;51.270;6.522;2023-06-26T10:06:54;27.50;49.70
28763;DHT22;15918;51.270;6.522;2023-06-26T10:09:22;27.50;49.20
28763;DHT22;15918;51.270;6.522;2023-06-26T10:12:03;27.50;49.30
28763;DHT22;15918;51.270;6.522;2023-06-26T10:14:34;27.60;49.20
28763;DHT22;15918;51.270;6.522;2023-06-26T10:17:13;27.60;49.00
28763;DHT22;15918;51.270;6.522;2023-06-26T10:19:44;27.60;49.00
28763;DHT22;15918;51.270;6.522;2023-06-26T10:22:12;27.60;48.70
28763;DHT22;15918;51.270;6.522;2023-06-26T10:24:40;27.60;48.40
28763;DHT22;15918;51.270;6.522;2023-06-26T10:27:21;27.60;48.30
28763;DHT22;15918;51.270;6.522;2023-06-26T10:29:58;27.60;48.40
28763;DHT22;15918;51.270;6.522;2023-06-26T10:32:27;27.60;48.40
28763;DHT22;15918;51.270;6.522;2023-06-26T10:34:53;27.60;48.20
28763;DHT22;15918;51.270;6.522;2023-06-26T10:37:20;27.70;48.20
28763;DHT22;15918;51.270;6.522;2023-06-26T10:42:15;27.70;48.10
28763;DHT22;15918;51.270;6.522;2023-06-26T10:44:46;27.70;48.00
28763;DHT22;15918;51.270;6.522;2023-06-26T10:47:31;27.70;47.50
28763;DHT22;15918;51.270;6.522;2023-06-26T10:50:15;27.70;47.50
28763;DHT22;15918;51.270;6.522;2023-06-26T10:52:41;27.70;47.00
28763;DHT22;15918;51.270;6.522;2023-06-26T10:55:08;27.70;47.00
28763;DHT22;15918;51.270;6.522;2023-06-26T10:57:36;27.80;46.90
28763;DHT22;15918;51.270;6.522;2023-06-26T11:00:09;27.80;46.40
28763;DHT22;15918;51.270;6.522;2023-06-26T11:02:57;27.80;46.20
28763;DHT22;15918;51.270;6.522;2023-06-26T11:05:26;27.80;45.70
28763;DHT22;15918;51.270;6.522;2023-06-26T11:08:08;27.80;45.70
28763;DHT22;15918;51.270;6.522;2023-06-26T11:10:51;27.80;45.30
28763;DHT22;15918;51.270;6.522;2023-06-26T11:13:18;27.90;45.00
28763;DHT22;15918;51.270;6.522;2023-06-26T11:15:45;28.00;45.10
28763;DHT22;15918;51.270;6.522;2023-06-26T11:18:12;27.90;44.90
28763;DHT22;15918;51.270;6.522;2023-06-26T11:20:38;27.90;44.80
28763;DHT22;15918;51.270;6.522;2023-06-26T11:23:04;27.90;44.60
28763;DHT22;15918;51.270;6.522;2023-06-26T11:25:34;28.00;44.60
28763;DHT22;15918;51.270;6.522;2023-06-26T11:28:00;28.00;44.60
28763;DHT22;15918;51.270;6.522;2023-06-26T11:30:26;28.00;44.40
28763;DHT22;15918;51.270;6.522;2023-06-26T11:32:52;28.10;44.10
28763;DHT22;15918;51.270;6.522;2023-06-26T11:35:25;28.00;44.20
28763;DHT22;15918;51.270;6.522;2023-06-26T11:37:56;28.10;44.20
28763;DHT22;15918;51.270;6.522;2023-06-26T11:40:23;28.00;44.00
28763;DHT22;15918;51.270;6.522;2023-06-26T11:42:53;28.10;44.20
28763;DHT22;15918;51.270;6.522;2023-06-26T11:45:19;28.00;44.00
28763;DHT22;15918;51.270;6.522;2023-06-26T11:47:47;28.00;44.00
28763;DHT22;15918;51.270;6.522;2023-06-26T11:50:17;28.10;44.60
28763;DHT22;15918;51.270;6.522;2023-06-26T11:52:44;28.10;43.40
28763;DHT22;15918;51.270;6.522;2023-06-26T11:55:10;28.10;43.30
28763;DHT22;15918;51.270;6.522;2023-06-26T11:57:36;28.10;42.90
28763;DHT22;15918;51.270;6.522;2023-06-26T12:00:15;28.10;42.50
28763;DHT22;15918;51.270;6.522;2023-06-26T12:02:43;28.10;42.30
28763;DHT22;15918;51.270;6.522;2023-06-26T12:05:09;28.10;42.10
28763;DHT22;15918;51.270;6.522;2023-06-26T12:07:35;28.10;41.70
28763;DHT22;15918;51.270;6.522;2023-06-26T12:10:02;28.10;41.40
28763;DHT22;15918;51.270;6.522;2023-06-26T12:12:28;28.10;41.30
28763;DHT22;15918;51.270;6.522;2023-06-26T12:14:55;28.10;41.30
28763;DHT22;15918;51.270;6.522;2023-06-26T12:17:22;28.10;41.40
28763;DHT22;15918;51.270;6.522;2023-06-26T12:19:51;28.10;41.20
28763;DHT22;15918;51.270;6.522;2023-06-26T12:22:17;28.10;41.10
28763;DHT22;15918;51.270;6.522;2023-06-26T12:24:44;28.10;40.90
28763;DHT22;15918;51.270;6.522;2023-06-26T12:27:13;28.00;41.10
28763;DHT22;15918;51.270;6.522;2023-06-26T12:29:40;28.00;41.20
28763;DHT22;15918;51.270;6.522;2023-06-26T12:32:10;28.10;41.60
28763;DHT22;15918;51.270;6.522;2023-06-26T12:34:37;28.10;41.30
28763;DHT22;15918;51.270;6.522;2023-06-26T12:37:08;28.10;41.50
28763;DHT22;15918;51.270;6.522;2023-06-26T12:39:54;28.10;41.10
28763;DHT22;15918;51.270;6.522;2023-06-26T12:42:25;28.10;40.70
28763;DHT22;15918;51.270;6.522;2023-06-26T12:44:51;28.10;40.80
28763;DHT22;15918;51.270;6.522;2023-06-26T12:47:19;28.10;40.70
28763;DHT22;15918;51.270;6.522;2023-06-26T12:49:50;28.10;40.70
28763;DHT22;15918;51.270;6.522;2023-06-26T12:52:16;28.10;40.50
28763;DHT22;15918;51.270;6.522;2023-06-26T12:54:44;28.10;40.40
28763;DHT22;15918;51.270;6.522;2023-06-26T12:57:12;28.10;40.30
28763;DHT22;15918;51.270;6.522;2023-06-26T12:59:39;28.10;40.30
28763;DHT22;15918;51.270;6.522;2023-06-26T13:02:06;28.20;40.20
28763;DHT22;15918;51.270;6.522;2023-06-26T13:04:33;28.20;40.10
28763;DHT22;15918;51.270;6.522;2023-06-26T13:06:59;28.20;40.20
28763;DHT22;15918;51.270;6.522;2023-06-26T13:09:25;28.20;40.20
28763;DHT22;15918;51.270;6.522;2023-06-26T13:11:52;28.20;40.30
28763;DHT22;15918;51.270;6.522;2023-06-26T13:14:18;28.20;40.30
28763;DHT22;15918;51.270;6.522;2023-06-26T13:16:43;28.20;40.20
28763;DHT22;15918;51.270;6.522;2023-06-26T13:19:09;28.20;39.80
28763;DHT22;15918;51.270;6.522;2023-06-26T13:21:35;28.20;39.60
28763;DHT22;15918;51.270;6.522;2023-06-26T13:24:02;28.20;39.60
28763;DHT22;15918;51.270;6.522;2023-06-26T13:26:29;28.20;39.70
28763;DHT22;15918;51.270;6.522;2023-06-26T13:28:55;28.20;39.60
28763;DHT22;15918;51.270;6.522;2023-06-26T13:31:21;28.20;39.40
28763;DHT22;15918;51.270;6.522;2023-06-26T13:33:51;28.10;39.10
28763;DHT22;15918;51.270;6.522;2023-06-26T13:36:20;28.20;39.00
28763;DHT22;15918;51.270;6.522;2023-06-26T13:38:47;28.30;39.20
28763;DHT22;15918;51.270;6.522;2023-06-26T13:41:15;28.20;39.30
28763;DHT22;15918;51.270;6.522;2023-06-26T13:43:41;28.20;39.30
28763;DHT22;15918;51.270;6.522;2023-06-26T13:46:07;28.20;39.30
28763;DHT22;15918;51.270;6.522;2023-06-26T13:48:32;28.10;39.30
28763;DHT22;15918;51.270;6.522;2023-06-26T13:50:58;28.10;39.30
28763;DHT22;15918;51.270;6.522;2023-06-26T13:53:25;28.10;39.30
28763;DHT22;15918;51.270;6.522;2023-06-26T13:55:50;28.10;39.30
28763;DHT22;15918;51.270;6.522;2023-06-26T13:58:16;28.10;39.20
28763;DHT22;15918;51.270;6.522;2023-06-26T14:00:41;28.10;39.00
28763;DHT22;15918;51.270;6.522;2023-06-26T14:03:09;28.10;38.80
28763;DHT22;15918;51.270;6.522;2023-06-26T14:05:36;28.10;39.00
28763;DHT22;15918;51.270;6.522;2023-06-26T14:08:04;28.10;39.00
28763;DHT22;15918;51.270;6.522;2023-06-26T14:10:30;28.00;38.90
28763;DHT22;15918;51.270;6.522;2023-06-26T14:12:58;28.10;39.10
28763;DHT22;15918;51.270;6.522;2023-06-26T14:15:24;28.10;39.20
28763;DHT22;15918;51.270;6.522;2023-06-26T14:17:50;28.10;39.40
28763;DHT22;15918;51.270;6.522;2023-06-26T14:20:17;28.10;39.40
28763;DHT22;15918;51.270;6.522;2023-06-26T14:22:43;28.00;39.30
28763;DHT22;15918;51.270;6.522;2023-06-26T14:25:13;28.10;39.30
28763;DHT22;15918;51.270;6.522;2023-06-26T14:27:39;28.00;39.00
28763;DHT22;15918;51.270;6.522;2023-06-26T14:30:05;28.00;39.10
28763;DHT22;15918;51.270;6.522;2023-06-26T14:32:32;28.00;38.80
28763;DHT22;15918;51.270;6.522;2023-06-26T14:34:58;28.00;38.90
28763;DHT22;15918;51.270;6.522;2023-06-26T14:37:25;28.00;38.70
28763;DHT22;15918;51.270;6.522;2023-06-26T14:39:51;28.00;38.60
28763;DHT22;15918;51.270;6.522;2023-06-26T14:42:17;27.90;38.40
28763;DHT22;15918;51.270;6.522;2023-06-26T14:44:42;27.90;38.10
28763;DHT22;15918;51.270;6.522;2023-06-26T14:47:08;27.90;38.10
28763;DHT22;15918;51.270;6.522;2023-06-26T14:49:34;27.90;38.00
28763;DHT22;15918;51.270;6.522;2023-06-26T14:52:00;27.90;38.00
28763;DHT22;15918;51.270;6.522;2023-06-26T14:54:25;27.90;37.80
28763;DHT22;15918;51.270;6.522;2023-06-26T14:56:51;27.90;37.80
28763;DHT22;15918;51.270;6.522;2023-06-26T14:59:17;27.80;37.60
28763;DHT22;15918;51.270;6.522;2023-06-26T15:01:43;27.90;37.70
28763;DHT22;15918;51.270;6.522;2023-06-26T15:04:09;27.80;37.60
28763;DHT22;15918;51.270;6.522;2023-06-26T15:06:35;27.80;37.80
28763;DHT22;15918;51.270;6.522;2023-06-26T15:09:01;27.80;38.10
28763;DHT22;15918;51.270;6.522;2023-06-26T15:11:28;27.80;38.20
28763;DHT22;15918;51.270;6.522;2023-06-26T15:13:55;27.80;38.30
28763;DHT22;15918;51.270;6.522;2023-06-26T15:16:20;27.80;38.20
28763;DHT22;15918;51.270;6.522;2023-06-26T15:18:46;27.80;38.30
28763;DHT22;15918;51.270;6.522;2023-06-26T15:21:12;27.80;38.00
28763;DHT22;15918;51.270;6.522;2023-06-26T15:23:38;27.80;37.90
28763;DHT22;15918;51.270;6.522;2023-06-26T15:26:04;27.80;37.90
28763;DHT22;15918;51.270;6.522;2023-06-26T15:28:30;27.80;38.00
28763;DHT22;15918;51.270;6.522;2023-06-26T15:30:56;27.80;38.10
28763;DHT22;15918;51.270;6.522;2023-06-26T15:33:21;27.80;38.90